Kintyre, North Dakota
Current Conditions -  °F | °C
As of 5:55 PM on Sunday 21 Dec 2014 (Local Time) from K7L2 Reporting Station
Haze Haze  
Wind Chill: 20°   Ceiling: 200
Heat Index: 30°   Visibility: 3mi
Dew Point: 30°   Wind: 13mph
Humidity: 100%   Direction: 140°SE
Pressure: 29.44"   Gusts: NA
Location:  46.55°N, 99.95°W
Report Text: K7L2 212355Z AUTO 14011KT 3SM BR OVC002 M01/M01 A2944 RMK AO2
Loading
Personal Weather Stations






























Interactive Weather Map New forecast layout! Learn more

10-Day Weather Forecast

Advertisements
Track Severe Weather on mobile